Time;durP1;ratioP1;P1;durP2;ratioP2;P2;SDS_P1;SDS_P2;PMS_P1;PMS_P2;Temp;Humidity;BMP_temperature;BMP_pressure;BME280_temperature;BME280_humidity;BME280_pressure;Samples;Min_cycle;Max_cycle;Signal;HPM_P1;HPM_P2
2023/09/13 00:02:00;;;;;;;7.40;5.35;;;18.50;99.90;;;;;;5109569;28;20743;-79
2023/09/13 00:04:27;;;;;;;8.48;6.00;;;18.50;99.90;;;;;;5115907;28;20387;-81
2023/09/13 00:06:54;;;;;;;12.75;6.57;;;18.50;99.90;;;;;;5104953;28;20301;-80
2023/09/13 00:09:21;;;;;;;13.73;5.78;;;18.50;99.90;;;;;;5113006;28;20304;-80
2023/09/13 00:11:48;;;;;;;8.80;6.00;;;18.70;99.90;;;;;;5115807;28;20196;-80
2023/09/13 00:14:16;;;;;;;7.75;5.82;;;18.50;99.90;;;;;;5110300;27;20197;-80
2023/09/13 00:16:43;;;;;;;9.90;6.40;;;18.60;99.90;;;;;;5115293;28;20227;-81
2023/09/13 00:19:10;;;;;;;6.75;5.22;;;18.50;99.90;;;;;;5115870;28;20201;-80
2023/09/13 00:21:40;;;;;;;12.05;6.63;;;18.50;99.90;;;;;;5110482;28;20745;-80
2023/09/13 00:24:08;;;;;;;10.80;5.88;;;18.60;99.90;;;;;;5113377;28;20228;-80
2023/09/13 00:26:35;;;;;;;8.27;5.90;;;18.50;99.90;;;;;;5099360;28;20225;-80
2023/09/13 00:29:02;;;;;;;9.15;5.80;;;18.60;99.90;;;;;;5109902;28;20217;-80
2023/09/13 00:31:30;;;;;;;7.85;6.22;;;18.50;99.90;;;;;;5107792;28;20284;-81
2023/09/13 00:33:57;;;;;;;9.45;6.50;;;18.50;99.90;;;;;;5116176;28;20775;-81
2023/09/13 00:36:23;;;;;;;8.73;6.43;;;18.60;99.90;;;;;;5114811;28;20724;-80
2023/09/13 00:38:50;;;;;;;9.02;6.18;;;18.60;99.90;;;;;;5109351;28;20200;-80
2023/09/13 00:41:17;;;;;;;8.93;6.50;;;18.60;99.90;;;;;;5100036;28;20290;-81
2023/09/13 00:43:44;;;;;;;8.65;5.45;;;18.60;99.90;;;;;;5116113;28;20204;-80
2023/09/13 00:46:11;;;;;;;8.85;6.05;;;18.60;99.90;;;;;;5115439;28;20249;-80
2023/09/13 00:48:40;;;;;;;7.07;5.20;;;18.70;99.90;;;;;;5117752;28;20221;-80
2023/09/13 00:51:07;;;;;;;7.60;5.20;;;18.70;99.90;;;;;;5112661;28;20209;-81
2023/09/13 00:53:34;;;;;;;9.25;4.75;;;18.60;99.90;;;;;;5112052;28;20669;-81
2023/09/13 00:56:02;;;;;;;6.78;5.22;;;18.90;99.90;;;;;;5114227;28;20252;-81
2023/09/13 00:58:30;;;;;;;9.35;5.28;;;18.90;99.90;;;;;;5114582;28;20222;-81
2023/09/13 01:00:57;;;;;;;7.13;5.22;;;18.90;99.90;;;;;;5110724;28;20197;-80
2023/09/13 01:03:24;;;;;;;8.13;5.75;;;18.90;99.90;;;;;;5108816;28;20232;-81
2023/09/13 01:05:55;;;;;;;7.88;5.53;;;18.90;99.90;;;;;;5108533;28;20235;-80
2023/09/13 01:08:22;;;;;;;8.30;5.63;;;18.90;99.90;;;;;;5099411;28;20308;-81
2023/09/13 01:10:49;;;;;;;7.30;4.47;;;18.90;99.90;;;;;;5112402;28;20287;-81
2023/09/13 01:13:16;;;;;;;5.72;4.72;;;19.00;99.90;;;;;;5114509;28;20277;-81
2023/09/13 01:15:54;;;;;;;7.22;4.88;;;18.80;99.90;;;;;;5112349;28;20228;-79
2023/09/13 01:18:24;;;;;;;10.07;5.97;;;18.80;99.90;;;;;;5106305;28;20188;-80
2023/09/13 01:21:14;;;;;;;8.85;5.78;;;18.90;99.90;;;;;;5114705;28;20291;-79
2023/09/13 01:24:13;;;;;;;6.78;5.80;;;18.90;99.90;;;;;;5117924;27;20240;-81
2023/09/13 01:26:57;;;;;;;6.93;5.43;;;18.80;99.90;;;;;;5086318;28;20232;-79
2023/09/13 01:29:26;;;;;;;6.85;5.38;;;18.80;99.90;;;;;;5114996;28;20216;-80
2023/09/13 01:31:55;;;;;;;6.35;4.88;;;18.80;99.90;;;;;;5116029;28;20292;-80
2023/09/13 01:34:21;;;;;;;7.82;5.28;;;18.90;99.90;;;;;;5116542;28;20193;-81
2023/09/13 01:36:48;;;;;;;6.28;4.72;;;18.90;99.90;;;;;;5116148;28;20307;-80
2023/09/13 01:39:15;;;;;;;7.22;4.80;;;18.90;99.90;;;;;;5107696;28;20205;-80
2023/09/13 01:41:53;;;;;;;6.68;4.85;;;18.90;99.90;;;;;;5109121;28;20647;-80
2023/09/13 01:44:21;;;;;;;5.15;4.65;;;19.00;99.90;;;;;;5110811;28;20192;-80
2023/09/13 01:46:51;;;;;;;9.93;5.28;;;18.90;99.90;;;;;;5114253;28;20225;-81
2023/09/13 01:49:20;;;;;;;7.93;5.22;;;18.90;99.90;;;;;;5114700;28;20217;-80
2023/09/13 01:51:48;;;;;;;8.13;5.53;;;18.90;99.90;;;;;;5115276;28;20658;-80
2023/09/13 01:54:18;;;;;;;7.22;5.50;;;18.90;99.90;;;;;;5108890;28;20219;-80
2023/09/13 01:56:45;;;;;;;8.23;5.97;;;18.90;99.90;;;;;;5109080;28;20385;-80
2023/09/13 01:59:11;;;;;;;6.72;5.32;;;19.00;99.90;;;;;;5110654;28;20207;-80
2023/09/13 02:01:38;;;;;;;7.60;5.55;;;19.00;99.90;;;;;;5108598;28;20587;-80
2023/09/13 02:04:08;;;;;;;9.43;5.82;;;19.10;99.90;;;;;;5107428;28;20224;-80
2023/09/13 02:06:34;;;;;;;5.68;4.50;;;19.00;99.90;;;;;;5114991;28;20216;-80
2023/09/13 02:09:01;;;;;;;6.88;4.88;;;19.10;99.90;;;;;;5115070;28;20217;-80
2023/09/13 02:11:28;;;;;;;8.57;5.15;;;19.10;99.90;;;;;;5115621;28;20288;-81
2023/09/13 02:13:55;;;;;;;8.07;5.30;;;19.00;99.90;;;;;;5108781;28;20211;-81
2023/09/13 02:16:22;;;;;;;6.40;4.75;;;19.00;99.90;;;;;;5106072;28;20220;-81
2023/09/13 02:18:49;;;;;;;7.05;5.07;;;19.10;99.90;;;;;;5114323;28;20288;-81
2023/09/13 02:21:17;;;;;;;6.25;4.20;;;19.10;99.90;;;;;;5109421;28;20227;-81
2023/09/13 02:23:44;;;;;;;6.20;4.63;;;19.00;99.90;;;;;;5110709;28;20201;-80
2023/09/13 02:26:19;;;;;;;7.65;5.15;;;19.00;99.90;;;;;;5114241;28;20221;-80
2023/09/13 02:28:46;;;;;;;9.20;5.18;;;19.10;99.90;;;;;;5116435;28;20581;-81
2023/09/13 02:31:13;;;;;;;7.85;5.20;;;19.10;99.90;;;;;;5112117;28;20202;-80
2023/09/13 02:33:40;;;;;;;8.18;4.97;;;19.10;99.90;;;;;;5104472;28;20575;-80
2023/09/13 02:36:07;;;;;;;8.30;5.60;;;19.10;99.90;;;;;;5112531;28;20224;-80
2023/09/13 02:38:35;;;;;;;8.80;5.30;;;19.10;99.90;;;;;;5115878;28;20207;-80
2023/09/13 02:41:03;;;;;;;8.32;6.75;;;19.10;99.90;;;;;;5114993;28;20205;-80
2023/09/13 02:43:29;;;;;;;6.28;5.00;;;19.00;99.90;;;;;;5114719;28;20204;-80
2023/09/13 02:45:56;;;;;;;7.25;5.28;;;19.00;99.90;;;;;;5109460;28;20228;-80
2023/09/13 02:48:23;;;;;;;8.18;5.57;;;19.00;99.90;;;;;;5099657;28;20211;-80
2023/09/13 02:50:50;;;;;;;7.55;5.72;;;19.10;99.90;;;;;;5103763;28;20204;-79
2023/09/13 02:53:17;;;;;;;7.13;5.55;;;19.10;99.90;;;;;;5106348;28;20212;-80
2023/09/13 02:55:45;;;;;;;8.25;5.53;;;19.10;99.90;;;;;;5117204;28;20236;-80
2023/09/13 02:58:12;;;;;;;6.90;5.30;;;19.20;99.90;;;;;;5122289;28;20239;-80
2023/09/13 03:00:43;;;;;;;6.13;5.05;;;19.20;99.90;;;;;;5119753;27;20285;-80
2023/09/13 03:03:10;;;;;;;9.18;5.60;;;19.20;99.90;;;;;;5119407;28;20201;-80
2023/09/13 03:05:37;;;;;;;8.60;5.57;;;19.20;99.90;;;;;;5118988;28;20223;-80
2023/09/13 03:08:05;;;;;;;8.85;5.78;;;19.20;99.90;;;;;;5115500;28;20201;-79
2023/09/13 03:10:33;;;;;;;9.15;6.15;;;19.20;99.90;;;;;;5118808;28;20217;-81
2023/09/13 03:13:01;;;;;;;11.30;6.90;;;19.30;99.90;;;;;;5110000;28;20654;-80
2023/09/13 03:15:32;;;;;;;8.70;6.75;;;19.20;99.90;;;;;;5116926;28;20197;-80
2023/09/13 03:17:58;;;;;;;11.07;7.35;;;19.30;99.90;;;;;;5116194;28;20215;-79
2023/09/13 03:20:25;;;;;;;12.38;7.32;;;19.30;99.90;;;;;;5122270;27;20646;-80
2023/09/13 03:22:52;;;;;;;11.85;7.93;;;19.30;99.90;;;;;;5126844;27;20276;-81
2023/09/13 03:25:19;;;;;;;11.43;8.30;;;19.20;99.90;;;;;;5114682;28;20216;-81
2023/09/13 03:27:48;;;;;;;13.50;9.02;;;19.20;99.90;;;;;;5100289;28;20212;-80
2023/09/13 03:30:17;;;;;;;15.10;10.52;;;19.20;99.90;;;;;;5114718;28;20233;-80
2023/09/13 03:32:44;;;;;;;17.48;11.55;;;19.20;99.90;;;;;;5114562;28;20211;-80
2023/09/13 03:35:10;;;;;;;14.02;9.13;;;19.30;99.90;;;;;;5117480;28;20667;-80
2023/09/13 03:37:37;;;;;;;13.60;9.65;;;19.20;99.90;;;;;;5117725;28;20883;-80
2023/09/13 03:40:06;;;;;;;14.77;9.95;;;19.30;99.90;;;;;;5118520;28;20197;-80
2023/09/13 03:42:33;;;;;;;14.15;9.18;;;19.30;99.90;;;;;;5118311;27;20197;-80
2023/09/13 03:45:00;;;;;;;14.50;10.02;;;19.30;99.90;;;;;;5118342;28;20614;-80
2023/09/13 03:47:28;;;;;;;13.88;9.50;;;19.30;99.90;;;;;;5109276;28;20221;-80
2023/09/13 03:49:55;;;;;;;16.10;10.35;;;19.20;99.90;;;;;;5114018;28;20227;-80
2023/09/13 03:52:22;;;;;;;15.15;9.45;;;19.20;99.90;;;;;;5112870;28;20207;-80
2023/09/13 03:54:48;;;;;;;15.48;10.65;;;19.30;99.90;;;;;;5110171;28;20205;-80
2023/09/13 03:57:15;;;;;;;13.88;9.75;;;19.30;99.90;;;;;;5119059;28;20227;-80
2023/09/13 03:59:42;;;;;;;17.00;10.18;;;19.30;99.90;;;;;;5117464;28;20201;-80
2023/09/13 04:02:09;;;;;;;16.85;11.27;;;19.40;99.90;;;;;;5115725;28;20292;-80
2023/09/13 04:04:37;;;;;;;18.08;12.27;;;19.20;99.90;;;;;;5125445;27;20201;-80
2023/09/13 04:07:04;;;;;;;18.15;11.93;;;19.20;99.90;;;;;;5116134;28;20228;-80
2023/09/13 04:09:31;;;;;;;18.88;12.25;;;19.10;99.90;;;;;;5118047;28;20316;-80
2023/09/13 04:11:57;;;;;;;18.60;12.00;;;19.00;99.90;;;;;;5116146;28;20205;-80
2023/09/13 04:14:24;;;;;;;16.98;11.77;;;19.00;99.90;;;;;;5114108;28;20868;-80
2023/09/13 04:16:51;;;;;;;16.52;10.20;;;18.80;99.90;;;;;;5112933;28;20221;-80
2023/09/13 04:19:18;;;;;;;17.55;10.63;;;18.80;99.90;;;;;;5120641;28;20576;-80
2023/09/13 04:21:46;;;;;;;15.52;9.98;;;18.70;99.90;;;;;;5120302;28;20209;-80
2023/09/13 04:24:13;;;;;;;12.50;9.02;;;18.60;99.90;;;;;;5114455;28;20209;-80
2023/09/13 04:26:39;;;;;;;12.85;8.90;;;18.60;99.90;;;;;;5119104;28;20225;-80
2023/09/13 04:29:07;;;;;;;11.13;7.90;;;18.50;99.90;;;;;;5120991;28;20207;-81
2023/09/13 04:31:33;;;;;;;11.73;8.68;;;18.40;99.90;;;;;;5120788;28;20203;-81
2023/09/13 04:34:00;;;;;;;12.65;7.32;;;18.40;99.90;;;;;;5110934;27;20230;-82
2023/09/13 04:36:27;;;;;;;11.25;8.20;;;18.40;99.90;;;;;;5109177;28;20308;-80
2023/09/13 04:38:55;;;;;;;9.50;7.45;;;18.20;99.90;;;;;;5113346;28;20215;-80
2023/09/13 04:41:22;;;;;;;9.88;7.45;;;18.20;99.90;;;;;;5105350;28;20462;-80
2023/09/13 04:43:49;;;;;;;11.70;7.00;;;18.10;99.90;;;;;;5111074;28;20211;-80
2023/09/13 04:46:16;;;;;;;11.73;6.85;;;18.00;99.90;;;;;;5106715;28;20242;-80
2023/09/13 04:48:43;;;;;;;13.10;7.55;;;18.10;99.90;;;;;;5105520;28;20206;-80
2023/09/13 04:51:11;;;;;;;11.13;7.55;;;18.10;99.90;;;;;;5112177;28;20223;-80
2023/09/13 04:53:38;;;;;;;9.38;6.68;;;18.00;99.90;;;;;;5111543;28;20722;-80
2023/09/13 04:56:06;;;;;;;10.85;7.28;;;18.10;99.90;;;;;;5112438;28;20301;-80
2023/09/13 04:58:33;;;;;;;9.90;6.80;;;18.10;99.90;;;;;;5116779;28;20203;-80
2023/09/13 05:00:59;;;;;;;9.43;6.25;;;18.00;99.90;;;;;;5116020;28;20674;-79
2023/09/13 05:03:26;;;;;;;9.85;6.32;;;18.00;99.90;;;;;;5106652;28;20220;-80
2023/09/13 05:05:53;;;;;;;9.20;6.60;;;18.00;99.90;;;;;;5114266;28;20233;-80
2023/09/13 05:08:20;;;;;;;9.07;6.47;;;18.10;99.90;;;;;;5115693;28;20203;-80
2023/09/13 05:10:46;;;;;;;8.52;6.45;;;18.00;99.90;;;;;;5115060;28;20217;-80
2023/09/13 05:13:15;;;;;;;11.48;6.63;;;18.10;99.90;;;;;;5106887;28;20205;-80
2023/09/13 05:15:45;;;;;;;9.00;6.18;;;18.20;99.90;;;;;;5102608;28;20596;-80
2023/09/13 05:18:12;;;;;;;8.15;6.43;;;18.20;99.90;;;;;;5111892;28;20573;-81
2023/09/13 05:20:39;;;;;;;9.20;6.45;;;18.20;99.90;;;;;;5114208;28;20205;-80
2023/09/13 05:23:06;;;;;;;9.50;6.03;;;18.30;99.90;;;;;;5104078;28;20594;-81
2023/09/13 05:25:33;;;;;;;9.88;6.75;;;18.30;99.90;;;;;;5122425;27;20239;-81
2023/09/13 05:28:00;;;;;;;8.60;6.53;;;18.30;99.90;;;;;;5122464;27;20211;-80
2023/09/13 05:30:33;;;;;;;10.32;6.43;;;18.10;99.90;;;;;;5111897;28;20231;-80
2023/09/13 05:33:00;;;;;;;10.65;6.18;;;18.30;99.90;;;;;;5113168;28;20197;-80
2023/09/13 05:35:31;;;;;;;7.97;6.13;;;18.30;99.90;;;;;;5104388;28;20201;-80
2023/09/13 05:37:57;;;;;;;10.55;5.95;;;18.40;99.90;;;;;;5112955;28;20205;-80
2023/09/13 05:40:24;;;;;;;8.98;6.22;;;18.30;99.90;;;;;;5116195;28;20209;-80
2023/09/13 05:42:51;;;;;;;9.98;6.82;;;18.30;99.90;;;;;;5119275;27;20200;-80
2023/09/13 05:45:18;;;;;;;9.68;6.78;;;18.40;99.90;;;;;;5106909;28;20205;-80
2023/09/13 05:47:48;;;;;;;9.15;6.22;;;18.30;99.90;;;;;;5096772;28;20210;-80
2023/09/13 05:50:15;;;;;;;8.90;7.13;;;18.40;99.90;;;;;;5101580;28;20642;-80
2023/09/13 05:52:43;;;;;;;9.63;6.60;;;18.40;99.90;;;;;;5103307;28;20670;-80
2023/09/13 05:55:10;;;;;;;8.60;7.00;;;18.50;99.90;;;;;;5118910;28;20216;-80
2023/09/13 05:57:37;;;;;;;8.88;6.63;;;18.50;99.90;;;;;;5111472;28;20198;-81
2023/09/13 06:00:05;;;;;;;13.23;6.80;;;18.40;99.90;;;;;;5106069;28;20205;-80
2023/09/13 06:02:31;;;;;;;8.88;6.72;;;18.50;99.90;;;;;;5109292;28;20651;-80
2023/09/13 06:04:59;;;;;;;10.95;6.80;;;18.40;99.90;;;;;;5104193;28;20594;-80
2023/09/13 06:07:26;;;;;;;13.82;7.50;;;18.50;99.90;;;;;;5114730;28;20828;-80
2023/09/13 06:09:53;;;;;;;11.80;7.50;;;18.40;99.90;;;;;;5108659;28;20229;-80
2023/09/13 06:12:20;;;;;;;9.75;7.38;;;18.60;99.90;;;;;;5104772;28;20201;-80
2023/09/13 06:14:46;;;;;;;10.63;7.88;;;18.70;99.90;;;;;;5114927;28;20211;-80
2023/09/13 06:17:13;;;;;;;9.40;7.18;;;18.70;99.90;;;;;;5097252;28;20229;-80
2023/09/13 06:19:40;;;;;;;11.32;7.35;;;18.80;99.90;;;;;;5106581;28;20212;-80
2023/09/13 06:22:08;;;;;;;10.57;7.70;;;18.80;99.90;;;;;;5102611;28;20204;-81
2023/09/13 06:24:35;;;;;;;8.68;6.95;;;18.80;99.90;;;;;;5097849;28;20212;-80
2023/09/13 06:27:02;;;;;;;12.27;7.65;;;18.70;99.90;;;;;;5103184;28;20225;-80
2023/09/13 06:29:29;;;;;;;7.07;6.38;;;18.80;99.90;;;;;;5107818;28;20220;-81
2023/09/13 06:31:56;;;;;;;9.45;6.70;;;18.90;99.90;;;;;;5098948;28;20757;-80
2023/09/13 06:34:23;;;;;;;7.85;6.10;;;18.80;99.90;;;;;;5099988;28;20216;-80
2023/09/13 06:36:50;;;;;;;8.65;6.25;;;18.80;99.90;;;;;;5098190;28;20225;-80
2023/09/13 06:39:19;;;;;;;8.25;6.10;;;18.70;99.90;;;;;;5099073;28;20225;-80
2023/09/13 06:41:46;;;;;;;7.63;5.32;;;18.80;99.90;;;;;;5103109;28;20205;-80
2023/09/13 06:44:12;;;;;;;8.10;6.28;;;18.80;99.90;;;;;;5097556;28;20202;-81
2023/09/13 06:46:39;;;;;;;9.30;5.72;;;18.80;99.90;;;;;;5106433;28;20232;-79
2023/09/13 06:49:06;;;;;;;6.38;5.43;;;18.80;99.90;;;;;;5105382;28;20216;-79
2023/09/13 06:51:33;;;;;;;6.05;5.45;;;18.90;99.90;;;;;;5109354;28;20217;-80
2023/09/13 06:54:00;;;;;;;8.65;5.85;;;18.90;99.90;;;;;;5101665;28;20221;-81
2023/09/13 06:56:28;;;;;;;6.60;5.80;;;19.00;99.90;;;;;;5110391;28;20233;-81
2023/09/13 06:58:55;;;;;;;7.85;6.00;;;19.00;99.90;;;;;;5108084;28;21100;-81
2023/09/13 07:01:21;;;;;;;8.73;6.10;;;19.10;99.90;;;;;;5109564;28;20585;-80
2023/09/13 07:03:48;;;;;;;6.93;5.65;;;19.10;99.90;;;;;;5110080;28;20668;-81
2023/09/13 07:06:15;;;;;;;6.07;5.28;;;19.00;99.90;;;;;;5105014;28;20221;-80
2023/09/13 07:08:42;;;;;;;6.28;5.43;;;19.00;99.90;;;;;;5108309;28;20233;-81
2023/09/13 07:11:09;;;;;;;6.05;5.35;;;18.90;99.90;;;;;;5108802;28;20600;-80
2023/09/13 07:13:37;;;;;;;6.93;6.22;;;18.80;99.90;;;;;;5110680;28;20208;-81
2023/09/13 07:16:04;;;;;;;5.95;5.28;;;18.80;99.90;;;;;;5110567;28;20225;-80
2023/09/13 07:18:31;;;;;;;8.00;6.28;;;18.90;99.90;;;;;;5108547;28;20201;-80
2023/09/13 07:20:58;;;;;;;8.40;6.40;;;19.10;99.90;;;;;;5104275;28;20205;-83
2023/09/13 07:23:24;;;;;;;6.88;5.88;;;19.30;99.90;;;;;;5110430;28;20215;-81
2023/09/13 07:25:51;;;;;;;9.10;7.10;;;19.30;99.90;;;;;;5106425;28;20225;-81
2023/09/13 07:28:18;;;;;;;8.90;6.80;;;19.40;99.90;;;;;;5110570;28;20692;-81
2023/09/13 07:30:46;;;;;;;9.43;7.38;;;19.20;99.90;;;;;;5107125;28;20232;-81
2023/09/13 07:33:13;;;;;;;7.65;6.85;;;19.20;99.90;;;;;;5108820;28;20205;-82
2023/09/13 07:35:40;;;;;;;8.65;6.78;;;19.00;99.90;;;;;;5106741;28;20595;-83
2023/09/13 07:38:10;;;;;;;11.18;7.63;;;18.90;99.90;;;;;;5117312;28;20292;-82
2023/09/13 07:40:37;;;;;;;11.60;8.30;;;18.80;99.90;;;;;;5112939;28;20204;-83
2023/09/13 07:43:07;;;;;;;9.00;7.68;;;18.90;99.90;;;;;;5109484;28;20209;-83
2023/09/13 07:45:34;;;;;;;8.85;7.95;;;18.90;99.90;;;;;;5114407;28;20304;-82
2023/09/13 07:48:03;;;;;;;8.65;7.75;;;19.20;99.90;;;;;;5135476;27;20249;-80
2023/09/13 07:50:31;;;;;;;9.55;7.88;;;19.20;99.90;;;;;;5129871;27;20213;-83
2023/09/13 07:52:58;;;;;;;8.38;7.45;;;19.30;99.90;;;;;;5120974;28;20203;-83
2023/09/13 07:55:26;;;;;;;9.23;6.78;;;19.20;99.90;;;;;;5119007;28;20249;-80
2023/09/13 07:57:53;;;;;;;9.30;6.68;;;19.20;99.90;;;;;;5119898;28;20185;-82
2023/09/13 08:00:20;;;;;;;9.18;7.15;;;19.30;99.90;;;;;;5119971;28;20197;-81
2023/09/13 08:02:48;;;;;;;8.52;7.10;;;19.50;99.90;;;;;;5119939;28;20569;-83
2023/09/13 08:05:17;;;;;;;9.48;7.78;;;19.60;99.90;;;;;;5118725;27;20649;-82
2023/09/13 08:07:44;;;;;;;8.07;7.22;;;19.70;99.90;;;;;;5114575;28;20216;-82
2023/09/13 08:10:11;;;;;;;9.88;8.00;;;19.80;99.90;;;;;;5118980;28;20211;-82
2023/09/13 08:12:38;;;;;;;8.13;6.60;;;19.80;99.90;;;;;;5112485;28;20564;-81
2023/09/13 08:15:05;;;;;;;8.73;7.30;;;19.80;99.90;;;;;;5120649;28;20208;-81
2023/09/13 08:17:33;;;;;;;7.55;6.60;;;19.80;99.90;;;;;;5120784;28;20213;-81
2023/09/13 08:20:00;;;;;;;8.73;6.68;;;19.70;99.90;;;;;;5120353;28;20201;-81
2023/09/13 08:22:29;;;;;;;8.27;6.45;;;19.80;99.90;;;;;;5120432;27;20711;-82
2023/09/13 08:25:15;;;;;;;6.70;6.00;;;19.70;99.90;;;;;;5113227;28;20207;-83
2023/09/13 08:27:41;;;;;;;6.55;5.70;;;19.70;99.90;;;;;;5117871;28;20223;-81
2023/09/13 08:30:09;;;;;;;6.47;4.90;;;19.80;99.90;;;;;;5118673;28;20208;-81
2023/09/13 08:32:37;;;;;;;6.32;4.75;;;19.60;99.90;;;;;;5116307;28;20682;-83
2023/09/13 08:35:04;;;;;;;4.97;4.47;;;19.80;99.90;;;;;;5119101;28;20234;-82
2023/09/13 08:37:32;;;;;;;4.68;4.28;;;19.80;99.90;;;;;;5119156;28;20217;-83
2023/09/13 08:39:59;;;;;;;4.30;3.90;;;19.90;99.90;;;;;;5119227;28;20196;-82
2023/09/13 08:42:27;;;;;;;5.55;4.20;;;20.00;99.90;;;;;;5118093;28;20618;-82
2023/09/13 08:44:55;;;;;;;6.00;5.18;;;20.20;99.90;;;;;;5107911;28;20205;-82
2023/09/13 08:47:24;;;;;;;4.80;4.40;;;20.40;99.90;;;;;;5098518;28;20228;-81
2023/09/13 08:49:53;;;;;;;5.30;4.43;;;20.50;99.90;;;;;;5117950;28;20711;-81
2023/09/13 08:52:21;;;;;;;4.47;4.07;;;20.50;99.90;;;;;;5118462;28;20227;-82
2023/09/13 08:54:50;;;;;;;4.97;4.35;;;20.50;99.90;;;;;;5118865;28;20677;-82
2023/09/13 08:57:17;;;;;;;5.97;4.53;;;20.50;99.90;;;;;;5120153;28;20228;-81
2023/09/13 08:59:44;;;;;;;5.45;4.45;;;20.50;99.90;;;;;;5119944;28;20217;-81
2023/09/13 09:02:17;;;;;;;5.63;4.95;;;20.50;99.90;;;;;;5118397;28;20201;-82
2023/09/13 09:04:45;;;;;;;5.63;4.97;;;20.50;99.90;;;;;;5118836;28;20189;-81
2023/09/13 09:07:13;;;;;;;5.38;4.72;;;20.40;99.90;;;;;;5119455;28;20224;-82
2023/09/13 09:09:40;;;;;;;6.80;5.25;;;20.60;99.90;;;;;;5118251;28;20211;-83
2023/09/13 09:12:12;;;;;;;6.72;5.53;;;20.70;99.90;;;;;;5117991;28;20224;-82
2023/09/13 09:14:42;;;;;;;7.00;5.50;;;20.90;99.90;;;;;;5099610;28;20705;-83
2023/09/13 09:17:09;;;;;;;8.27;5.35;;;20.90;99.90;;;;;;5097837;28;20275;-81
2023/09/13 09:19:36;;;;;;;5.20;4.70;;;21.20;99.90;;;;;;5097961;28;20198;-81
2023/09/13 09:22:03;;;;;;;5.50;4.82;;;21.30;1.00;;;;;;5098034;28;20213;-82
2023/09/13 09:24:30;;;;;;;5.63;5.05;;;21.30;99.90;;;;;;5107901;28;20211;-83
2023/09/13 09:26:57;;;;;;;5.80;4.65;;;21.30;99.90;;;;;;5117734;28;20681;-83
2023/09/13 09:29:34;;;;;;;6.13;4.60;;;21.30;99.90;;;;;;5118769;28;20200;-83
2023/09/13 09:32:03;;;;;;;6.55;4.90;;;21.30;99.90;;;;;;5117476;28;20207;-83
2023/09/13 09:34:32;;;;;;;5.82;5.00;;;21.30;99.90;;;;;;5119242;28;20196;-83
2023/09/13 09:37:06;;;;;;;5.63;5.13;;;21.40;99.90;;;;;;5118120;28;20230;-82
2023/09/13 09:39:37;;;;;;;5.22;4.60;;;21.40;99.90;;;;;;5108809;28;20196;-81
2023/09/13 09:42:04;;;;;;;5.70;4.80;;;21.40;99.90;;;;;;5121905;27;20193;-81
2023/09/13 09:44:32;;;;;;;5.13;4.63;;;21.50;99.90;;;;;;5117606;28;20193;-81
2023/09/13 09:46:59;;;;;;;6.18;4.43;;;21.60;99.90;;;;;;5118015;28;20736;-81
2023/09/13 09:49:26;;;;;;;4.70;4.30;;;21.80;99.90;;;;;;5118631;28;20214;-82
2023/09/13 09:51:55;;;;;;;4.68;4.28;;;22.20;99.90;;;;;;5116785;28;20295;-81
2023/09/13 09:54:22;;;;;;;6.18;4.70;;;22.50;99.90;;;;;;5116872;28;20193;-79
2023/09/13 09:56:48;;;;;;;4.55;4.15;;;22.80;99.90;;;;;;5127543;28;20292;-83
2023/09/13 09:59:15;;;;;;;5.03;4.22;;;22.50;99.90;;;;;;5106039;28;20192;-82
2023/09/13 10:01:46;;;;;;;4.07;3.67;;;22.90;99.90;;;;;;5117745;28;20203;-81
2023/09/13 10:04:16;;;;;;;4.18;3.70;;;22.80;99.90;;;;;;5118072;28;20602;-82
2023/09/13 10:06:59;;;;;;;4.30;3.90;;;22.80;99.90;;;;;;5110945;28;20218;-81
2023/09/13 10:09:37;;;;;;;4.10;3.70;;;22.60;99.90;;;;;;5117805;27;20192;-81
2023/09/13 10:12:04;;;;;;;4.90;4.20;;;22.70;99.90;;;;;;5116315;27;20209;-80
2023/09/13 10:14:32;;;;;;;4.50;4.10;;;22.40;99.90;;;;;;5115471;28;20200;-81
2023/09/13 10:17:00;;;;;;;5.03;4.35;;;22.30;99.90;;;;;;5120451;27;20232;-80
2023/09/13 10:19:30;;;;;;;4.47;4.07;;;22.70;99.90;;;;;;5122075;28;20197;-81
2023/09/13 10:21:57;;;;;;;4.43;4.00;;;22.50;99.90;;;;;;5107571;28;20273;-80
2023/09/13 10:24:30;;;;;;;6.20;4.10;;;22.30;99.90;;;;;;5108927;27;20201;-80
2023/09/13 10:26:58;;;;;;;4.65;4.25;;;22.10;99.90;;;;;;5123455;27;20624;-80
2023/09/13 10:29:31;;;;;;;7.50;4.40;;;21.80;99.90;;;;;;5121837;28;20201;-82
2023/09/13 10:32:02;;;;;;;4.45;4.05;;;21.70;99.90;;;;;;5120663;28;20366;-82
2023/09/13 10:34:34;;;;;;;4.82;3.55;;;21.10;99.90;;;;;;5119028;28;20630;-82
2023/09/13 10:37:07;;;;;;;4.72;2.78;;;20.30;99.90;;;;;;5115955;28;20609;-82
2023/09/13 10:39:38;;;;;;;1.95;1.85;;;20.00;99.90;;;;;;5118285;27;20207;-83
2023/09/13 10:42:07;;;;;;;1.90;1.40;;;20.00;99.90;;;;;;5119634;28;20201;-83
2023/09/13 10:44:35;;;;;;;1.42;1.33;;;19.80;99.90;;;;;;5114751;28;20204;-82
2023/09/13 10:47:05;;;;;;;1.70;1.60;;;19.70;99.90;;;;;;5117526;28;20712;-82
2023/09/13 10:49:33;;;;;;;2.15;1.95;;;19.70;99.90;;;;;;5114845;28;20205;-81
2023/09/13 10:52:00;;;;;;;1.90;1.80;;;19.70;99.90;;;;;;5107103;28;20236;-81
2023/09/13 10:54:31;;;;;;;2.53;2.05;;;19.90;99.90;;;;;;5120020;28;20197;-82
2023/09/13 10:56:58;;;;;;;4.05;3.65;;;19.90;99.90;;;;;;5113237;28;20220;-81
2023/09/13 10:59:26;;;;;;;4.22;3.83;;;19.80;99.90;;;;;;5118069;28;20676;-83
2023/09/13 11:01:54;;;;;;;3.90;3.60;;;19.60;99.90;;;;;;5115353;28;20211;-81
2023/09/13 11:04:25;;;;;;;5.22;4.57;;;19.50;99.90;;;;;;5114568;28;20203;-81
2023/09/13 11:06:54;;;;;;;5.20;4.70;;;19.60;99.90;;;;;;5121106;28;20239;-81
2023/09/13 11:09:27;;;;;;;5.68;4.75;;;19.50;99.90;;;;;;5117510;28;20588;-82
2023/09/13 11:11:56;;;;;;;4.82;4.30;;;19.50;99.90;;;;;;5118050;28;20221;-81
2023/09/13 11:14:27;;;;;;;5.40;4.88;;;19.50;99.90;;;;;;5107220;28;20201;-81
2023/09/13 11:16:54;;;;;;;6.28;5.10;;;19.60;99.90;;;;;;5105199;28;20232;-80
2023/09/13 11:19:28;;;;;;;6.60;4.97;;;19.50;99.90;;;;;;5113014;27;20201;-81
2023/09/13 11:22:00;;;;;;;6.80;5.30;;;19.30;99.90;;;;;;5111387;28;20567;-80
2023/09/13 11:24:37;;;;;;;5.80;4.90;;;19.20;99.90;;;;;;5111043;27;20198;-81
2023/09/13 11:27:12;;;;;;;6.00;4.38;;;19.20;99.90;;;;;;5110373;28;22018;-81
2023/09/13 11:29:44;;;;;;;5.07;4.03;;;19.10;99.90;;;;;;5110215;28;20217;-82
2023/09/13 11:32:17;;;;;;;4.25;3.22;;;19.00;99.90;;;;;;5115997;28;20220;-83
2023/09/13 11:34:46;;;;;;;3.97;3.10;;;18.90;99.90;;;;;;5107810;28;20206;-82
2023/09/13 11:37:14;;;;;;;3.85;3.40;;;18.90;99.90;;;;;;5117629;28;20225;-81
2023/09/13 11:39:40;;;;;;;4.28;3.13;;;18.80;99.90;;;;;;5114367;28;20223;-81
2023/09/13 11:42:09;;;;;;;4.57;3.30;;;19.10;99.90;;;;;;5120574;28;20201;-82
2023/09/13 11:44:37;;;;;;;4.00;3.08;;;19.20;99.90;;;;;;5105100;28;20201;-82
2023/09/13 11:47:07;;;;;;;4.28;3.22;;;19.20;99.90;;;;;;5101830;28;20213;-82
2023/09/13 11:49:40;;;;;;;3.85;3.00;;;19.20;99.90;;;;;;5117046;28;20205;-80
2023/09/13 11:52:09;;;;;;;3.35;3.05;;;19.20;99.90;;;;;;5110045;28;20222;-82
2023/09/13 11:54:53;;;;;;;4.20;3.28;;;19.10;99.90;;;;;;5119619;28;20212;-81
2023/09/13 11:57:20;;;;;;;3.42;3.05;;;19.10;99.90;;;;;;5110542;28;20254;-81
2023/09/13 11:59:53;;;;;;;7.20;5.40;;;19.00;99.90;;;;;;5114917;28;20619;-81
2023/09/13 12:02:20;;;;;;;7.05;6.00;;;19.00;99.90;;;;;;5117950;28;20208;-83
2023/09/13 12:04:49;;;;;;;4.20;3.80;;;18.80;99.90;;;;;;5116690;28;20201;-84
2023/09/13 12:07:19;;;;;;;4.40;3.70;;;18.50;99.90;;;;;;5120595;28;20212;-82
2023/09/13 12:09:55;;;;;;;4.10;3.70;;;18.40;99.90;;;;;;5112206;28;20212;-80
2023/09/13 12:12:22;;;;;;;5.57;3.50;;;18.30;99.90;;;;;;5121890;28;20209;-83
2023/09/13 12:14:49;;;;;;;4.97;4.20;;;18.30;99.90;;;;;;5111061;28;20569;-84
2023/09/13 12:17:16;;;;;;;4.50;3.90;;;18.20;99.90;;;;;;5110813;28;20251;-84
2023/09/13 12:19:45;;;;;;;4.05;3.67;;;18.20;99.90;;;;;;5118795;28;20204;-83
2023/09/13 12:22:18;;;;;;;5.63;4.65;;;18.20;99.90;;;;;;5115595;28;20229;-84
2023/09/13 12:24:52;;;;;;;5.25;4.65;;;18.20;99.90;;;;;;5119546;28;20702;-80
2023/09/13 12:27:19;;;;;;;8.05;6.65;;;18.30;99.90;;;;;;5119584;28;20224;-81
2023/09/13 12:29:46;;;;;;;9.88;6.10;;;18.00;99.90;;;;;;5133551;27;20215;-83
2023/09/13 12:32:14;;;;;;;10.15;6.07;;;18.10;99.90;;;;;;5120557;27;20213;-82
2023/09/13 12:34:41;;;;;;;7.95;6.78;;;18.10;99.90;;;;;;5109590;28;20211;-83
2023/09/13 12:37:08;;;;;;;14.05;8.98;;;18.10;99.90;;;;;;5120775;28;20213;-80
2023/09/13 12:39:36;;;;;;;16.27;11.23;;;17.80;99.90;;;;;;5115576;28;20924;-79
2023/09/13 12:42:06;;;;;;;13.98;10.40;;;17.50;99.90;;;;;;5116993;28;20240;-83
2023/09/13 12:44:35;;;;;;;17.52;11.85;;;17.60;99.90;;;;;;5116335;28;20197;-81
2023/09/13 12:47:03;;;;;;;20.45;13.85;;;17.40;99.90;;;;;;5115062;28;21161;-82
2023/09/13 12:49:30;;;;;;;26.80;17.08;;;17.50;99.90;;;;;;5116917;28;20655;-82